sensor_id;sensor_type;location;lat;lon;timestamp;P1;durP1;ratioP1;P2;durP2;ratioP2
15061;SDS011;7630;50.306;8.566;2024-03-06T00:03:32;25.83;;;22.13;;
15061;SDS011;7630;50.306;8.566;2024-03-06T00:07:33;27.07;;;24.13;;
15061;SDS011;7630;50.306;8.566;2024-03-06T00:11:35;27.13;;;22.67;;
15061;SDS011;7630;50.306;8.566;2024-03-06T00:15:39;26.13;;;21.47;;
15061;SDS011;7630;50.306;8.566;2024-03-06T00:19:40;24.17;;;20.40;;
15061;SDS011;7630;50.306;8.566;2024-03-06T00:23:41;20.90;;;17.50;;
15061;SDS011;7630;50.306;8.566;2024-03-06T00:27:42;25.37;;;19.40;;
15061;SDS011;7630;50.306;8.566;2024-03-06T00:31:44;20.00;;;17.00;;
15061;SDS011;7630;50.306;8.566;2024-03-06T00:35:46;17.07;;;15.47;;
15061;SDS011;7630;50.306;8.566;2024-03-06T00:39:48;17.27;;;15.67;;
15061;SDS011;7630;50.306;8.566;2024-03-06T00:43:49;17.43;;;15.70;;
15061;SDS011;7630;50.306;8.566;2024-03-06T00:47:50;18.63;;;16.83;;
15061;SDS011;7630;50.306;8.566;2024-03-06T00:51:51;20.47;;;18.10;;
15061;SDS011;7630;50.306;8.566;2024-03-06T00:55:52;26.57;;;20.67;;
15061;SDS011;7630;50.306;8.566;2024-03-06T00:59:54;23.70;;;20.03;;
15061;SDS011;7630;50.306;8.566;2024-03-06T01:03:55;23.40;;;19.83;;
15061;SDS011;7630;50.306;8.566;2024-03-06T01:07:57;19.60;;;16.17;;
15061;SDS011;7630;50.306;8.566;2024-03-06T01:11:59;18.20;;;16.57;;
15061;SDS011;7630;50.306;8.566;2024-03-06T01:16:01;18.10;;;16.30;;
15061;SDS011;7630;50.306;8.566;2024-03-06T01:20:02;20.57;;;18.50;;
15061;SDS011;7630;50.306;8.566;2024-03-06T01:24:05;19.03;;;17.10;;
15061;SDS011;7630;50.306;8.566;2024-03-06T01:28:06;18.93;;;17.23;;
15061;SDS011;7630;50.306;8.566;2024-03-06T01:32:07;23.40;;;19.83;;
15061;SDS011;7630;50.306;8.566;2024-03-06T01:36:08;22.03;;;19.67;;
15061;SDS011;7630;50.306;8.566;2024-03-06T01:40:10;21.47;;;19.17;;
15061;SDS011;7630;50.306;8.566;2024-03-06T01:44:17;22.53;;;20.23;;
15061;SDS011;7630;50.306;8.566;2024-03-06T01:48:20;21.17;;;19.00;;
15061;SDS011;7630;50.306;8.566;2024-03-06T01:52:27;29.43;;;21.57;;
15061;SDS011;7630;50.306;8.566;2024-03-06T01:56:29;22.97;;;20.57;;
15061;SDS011;7630;50.306;8.566;2024-03-06T02:00:31;23.47;;;21.07;;
15061;SDS011;7630;50.306;8.566;2024-03-06T02:04:34;21.67;;;19.47;;
15061;SDS011;7630;50.306;8.566;2024-03-06T02:08:36;24.60;;;21.87;;
15061;SDS011;7630;50.306;8.566;2024-03-06T02:12:37;26.57;;;21.43;;
15061;SDS011;7630;50.306;8.566;2024-03-06T02:16:39;23.53;;;21.03;;
15061;SDS011;7630;50.306;8.566;2024-03-06T02:20:40;25.50;;;21.43;;
15061;SDS011;7630;50.306;8.566;2024-03-06T02:24:44;22.90;;;18.43;;
15061;SDS011;7630;50.306;8.566;2024-03-06T02:28:49;25.07;;;22.37;;
15061;SDS011;7630;50.306;8.566;2024-03-06T02:32:52;21.33;;;19.10;;
15061;SDS011;7630;50.306;8.566;2024-03-06T02:36:53;24.47;;;21.73;;
15061;SDS011;7630;50.306;8.566;2024-03-06T02:40:55;27.20;;;20.87;;
15061;SDS011;7630;50.306;8.566;2024-03-06T02:44:56;27.07;;;22.13;;
15061;SDS011;7630;50.306;8.566;2024-03-06T02:48:57;26.43;;;22.30;;
15061;SDS011;7630;50.306;8.566;2024-03-06T02:52:58;24.03;;;21.63;;
15061;SDS011;7630;50.306;8.566;2024-03-06T02:56:59;24.53;;;20.77;;
15061;SDS011;7630;50.306;8.566;2024-03-06T03:01:00;25.93;;;22.43;;
15061;SDS011;7630;50.306;8.566;2024-03-06T03:05:01;24.40;;;21.57;;
15061;SDS011;7630;50.306;8.566;2024-03-06T03:09:03;26.90;;;22.67;;
15061;SDS011;7630;50.306;8.566;2024-03-06T03:13:04;25.67;;;22.87;;
15061;SDS011;7630;50.306;8.566;2024-03-06T03:17:06;24.03;;;20.50;;
15061;SDS011;7630;50.306;8.566;2024-03-06T03:21:08;24.77;;;21.23;;
15061;SDS011;7630;50.306;8.566;2024-03-06T03:25:10;21.07;;;18.87;;
15061;SDS011;7630;50.306;8.566;2024-03-06T03:29:14;23.07;;;19.47;;
15061;SDS011;7630;50.306;8.566;2024-03-06T03:33:15;22.27;;;19.63;;
15061;SDS011;7630;50.306;8.566;2024-03-06T03:37:17;21.57;;;19.17;;
15061;SDS011;7630;50.306;8.566;2024-03-06T03:41:18;21.63;;;19.30;;
15061;SDS011;7630;50.306;8.566;2024-03-06T03:45:20;25.67;;;19.47;;
15061;SDS011;7630;50.306;8.566;2024-03-06T03:49:21;24.90;;;19.53;;
15061;SDS011;7630;50.306;8.566;2024-03-06T03:53:22;23.60;;;20.60;;
15061;SDS011;7630;50.306;8.566;2024-03-06T03:57:23;21.23;;;19.03;;
15061;SDS011;7630;50.306;8.566;2024-03-06T04:01:24;21.37;;;18.47;;
15061;SDS011;7630;50.306;8.566;2024-03-06T04:05:26;21.80;;;19.60;;
15061;SDS011;7630;50.306;8.566;2024-03-06T04:09:27;21.20;;;18.37;;
15061;SDS011;7630;50.306;8.566;2024-03-06T04:13:29;23.27;;;20.07;;
15061;SDS011;7630;50.306;8.566;2024-03-06T04:17:30;23.17;;;20.00;;
15061;SDS011;7630;50.306;8.566;2024-03-06T04:21:31;26.13;;;21.03;;
15061;SDS011;7630;50.306;8.566;2024-03-06T04:25:32;21.67;;;18.33;;
15061;SDS011;7630;50.306;8.566;2024-03-06T04:29:33;22.93;;;20.47;;
15061;SDS011;7630;50.306;8.566;2024-03-06T04:33:34;26.23;;;18.90;;
15061;SDS011;7630;50.306;8.566;2024-03-06T04:37:36;20.73;;;17.70;;
15061;SDS011;7630;50.306;8.566;2024-03-06T04:41:37;21.57;;;18.03;;
15061;SDS011;7630;50.306;8.566;2024-03-06T04:45:38;24.73;;;19.70;;
15061;SDS011;7630;50.306;8.566;2024-03-06T04:49:39;26.30;;;22.10;;
15061;SDS011;7630;50.306;8.566;2024-03-06T04:53:40;26.50;;;21.20;;
15061;SDS011;7630;50.306;8.566;2024-03-06T04:57:43;26.07;;;22.33;;
15061;SDS011;7630;50.306;8.566;2024-03-06T05:01:44;24.20;;;20.97;;
15061;SDS011;7630;50.306;8.566;2024-03-06T05:05:46;23.00;;;19.43;;
15061;SDS011;7630;50.306;8.566;2024-03-06T05:10:06;23.67;;;18.60;;
15061;SDS011;7630;50.306;8.566;2024-03-06T05:14:28;22.13;;;19.57;;
15061;SDS011;7630;50.306;8.566;2024-03-06T05:18:47;20.07;;;17.17;;
15061;SDS011;7630;50.306;8.566;2024-03-06T05:23:07;18.73;;;16.73;;
15061;SDS011;7630;50.306;8.566;2024-03-06T05:27:27;22.80;;;17.73;;
15061;SDS011;7630;50.306;8.566;2024-03-06T05:31:46;22.00;;;17.77;;
15061;SDS011;7630;50.306;8.566;2024-03-06T05:36:06;21.77;;;18.60;;
15061;SDS011;7630;50.306;8.566;2024-03-06T05:40:25;26.40;;;23.53;;
15061;SDS011;7630;50.306;8.566;2024-03-06T05:44:44;43.63;;;36.40;;
15061;SDS011;7630;50.306;8.566;2024-03-06T05:49:04;35.03;;;29.57;;
15061;SDS011;7630;50.306;8.566;2024-03-06T05:53:23;33.70;;;25.27;;
15061;SDS011;7630;50.306;8.566;2024-03-06T05:57:42;31.43;;;22.40;;
15061;SDS011;7630;50.306;8.566;2024-03-06T06:02:04;23.50;;;19.47;;
15061;SDS011;7630;50.306;8.566;2024-03-06T06:06:06;22.63;;;19.30;;
15061;SDS011;7630;50.306;8.566;2024-03-06T06:10:09;26.40;;;19.77;;
15061;SDS011;7630;50.306;8.566;2024-03-06T06:14:10;30.90;;;26.23;;
15061;SDS011;7630;50.306;8.566;2024-03-06T06:18:11;29.13;;;23.23;;
15061;SDS011;7630;50.306;8.566;2024-03-06T06:22:13;25.20;;;20.83;;
15061;SDS011;7630;50.306;8.566;2024-03-06T06:26:14;22.50;;;19.00;;
15061;SDS011;7630;50.306;8.566;2024-03-06T06:30:16;21.67;;;18.77;;
15061;SDS011;7630;50.306;8.566;2024-03-06T06:34:17;23.57;;;17.93;;
15061;SDS011;7630;50.306;8.566;2024-03-06T06:38:19;22.00;;;18.53;;
15061;SDS011;7630;50.306;8.566;2024-03-06T06:42:20;25.37;;;18.73;;
15061;SDS011;7630;50.306;8.566;2024-03-06T06:46:22;24.87;;;20.70;;
15061;SDS011;7630;50.306;8.566;2024-03-06T06:50:23;25.73;;;21.63;;
15061;SDS011;7630;50.306;8.566;2024-03-06T06:54:26;27.63;;;20.73;;
15061;SDS011;7630;50.306;8.566;2024-03-06T06:58:27;24.83;;;19.67;;
15061;SDS011;7630;50.306;8.566;2024-03-06T07:02:28;26.57;;;22.40;;
15061;SDS011;7630;50.306;8.566;2024-03-06T07:06:30;25.13;;;19.33;;
15061;SDS011;7630;50.306;8.566;2024-03-06T07:10:31;30.73;;;21.23;;
15061;SDS011;7630;50.306;8.566;2024-03-06T07:14:32;26.23;;;21.70;;
15061;SDS011;7630;50.306;8.566;2024-03-06T07:18:34;25.33;;;20.10;;
15061;SDS011;7630;50.306;8.566;2024-03-06T07:22:35;29.53;;;25.13;;
15061;SDS011;7630;50.306;8.566;2024-03-06T07:26:36;27.50;;;23.73;;
15061;SDS011;7630;50.306;8.566;2024-03-06T07:30:37;27.17;;;24.10;;
15061;SDS011;7630;50.306;8.566;2024-03-06T07:34:39;28.93;;;25.00;;
15061;SDS011;7630;50.306;8.566;2024-03-06T07:38:40;26.80;;;23.87;;
15061;SDS011;7630;50.306;8.566;2024-03-06T07:42:42;27.20;;;24.23;;
15061;SDS011;7630;50.306;8.566;2024-03-06T07:46:43;33.27;;;27.80;;
15061;SDS011;7630;50.306;8.566;2024-03-06T07:50:45;33.93;;;26.93;;
15061;SDS011;7630;50.306;8.566;2024-03-06T07:54:46;33.67;;;26.80;;
15061;SDS011;7630;50.306;8.566;2024-03-06T07:58:47;30.07;;;25.60;;
15061;SDS011;7630;50.306;8.566;2024-03-06T08:02:49;30.63;;;27.47;;
15061;SDS011;7630;50.306;8.566;2024-03-06T08:06:50;27.93;;;24.23;;
15061;SDS011;7630;50.306;8.566;2024-03-06T08:10:51;29.43;;;23.10;;
15061;SDS011;7630;50.306;8.566;2024-03-06T08:14:53;26.97;;;23.60;;
15061;SDS011;7630;50.306;8.566;2024-03-06T08:18:55;30.17;;;22.53;;
15061;SDS011;7630;50.306;8.566;2024-03-06T08:22:56;32.03;;;25.67;;
15061;SDS011;7630;50.306;8.566;2024-03-06T08:26:57;28.67;;;23.87;;
15061;SDS011;7630;50.306;8.566;2024-03-06T08:30:59;25.50;;;22.67;;
15061;SDS011;7630;50.306;8.566;2024-03-06T08:39:06;25.20;;;21.83;;
15061;SDS011;7630;50.306;8.566;2024-03-06T08:43:07;25.57;;;22.73;;
15061;SDS011;7630;50.306;8.566;2024-03-06T08:47:10;25.20;;;22.53;;
15061;SDS011;7630;50.306;8.566;2024-03-06T08:51:12;25.07;;;22.10;;
15061;SDS011;7630;50.306;8.566;2024-03-06T08:55:14;23.33;;;20.97;;
15061;SDS011;7630;50.306;8.566;2024-03-06T08:59:15;22.03;;;19.83;;
15061;SDS011;7630;50.306;8.566;2024-03-06T09:03:17;23.43;;;20.93;;
15061;SDS011;7630;50.306;8.566;2024-03-06T09:07:19;23.80;;;19.93;;
15061;SDS011;7630;50.306;8.566;2024-03-06T09:11:20;24.20;;;21.67;;
15061;SDS011;7630;50.306;8.566;2024-03-06T09:15:23;27.20;;;24.30;;
15061;SDS011;7630;50.306;8.566;2024-03-06T09:19:25;28.30;;;25.33;;
15061;SDS011;7630;50.306;8.566;2024-03-06T09:23:26;32.13;;;27.17;;
15061;SDS011;7630;50.306;8.566;2024-03-06T09:27:27;37.97;;;29.20;;
15061;SDS011;7630;50.306;8.566;2024-03-06T09:31:28;32.80;;;27.50;;
15061;SDS011;7630;50.306;8.566;2024-03-06T09:35:29;40.10;;;31.30;;
15061;SDS011;7630;50.306;8.566;2024-03-06T09:39:30;41.93;;;34.60;;
15061;SDS011;7630;50.306;8.566;2024-03-06T09:43:31;38.23;;;30.60;;
15061;SDS011;7630;50.306;8.566;2024-03-06T09:47:33;35.27;;;28.37;;
15061;SDS011;7630;50.306;8.566;2024-03-06T09:51:38;39.77;;;30.93;;
15061;SDS011;7630;50.306;8.566;2024-03-06T09:55:42;42.93;;;34.00;;
15061;SDS011;7630;50.306;8.566;2024-03-06T09:59:43;43.73;;;35.60;;
15061;SDS011;7630;50.306;8.566;2024-03-06T10:03:45;45.97;;;35.20;;
15061;SDS011;7630;50.306;8.566;2024-03-06T10:07:47;44.13;;;35.87;;
15061;SDS011;7630;50.306;8.566;2024-03-06T10:11:50;48.27;;;36.70;;
15061;SDS011;7630;50.306;8.566;2024-03-06T10:16:00;51.53;;;38.03;;
15061;SDS011;7630;50.306;8.566;2024-03-06T10:20:22;55.03;;;38.43;;
15061;SDS011;7630;50.306;8.566;2024-03-06T10:24:25;44.90;;;36.10;;
15061;SDS011;7630;50.306;8.566;2024-03-06T10:28:28;43.07;;;33.50;;
15061;SDS011;7630;50.306;8.566;2024-03-06T10:32:30;35.97;;;31.57;;
15061;SDS011;7630;50.306;8.566;2024-03-06T10:36:32;35.30;;;29.97;;
15061;SDS011;7630;50.306;8.566;2024-03-06T10:40:34;31.87;;;26.90;;
15061;SDS011;7630;50.306;8.566;2024-03-06T10:44:37;29.77;;;25.70;;
15061;SDS011;7630;50.306;8.566;2024-03-06T10:48:42;26.10;;;23.20;;
15061;SDS011;7630;50.306;8.566;2024-03-06T10:52:45;23.10;;;20.63;;
15061;SDS011;7630;50.306;8.566;2024-03-06T10:56:48;28.87;;;19.33;;
15061;SDS011;7630;50.306;8.566;2024-03-06T11:00:49;20.90;;;18.80;;
15061;SDS011;7630;50.306;8.566;2024-03-06T11:04:53;20.53;;;17.43;;
15061;SDS011;7630;50.306;8.566;2024-03-06T11:08:54;19.93;;;17.60;;
15061;SDS011;7630;50.306;8.566;2024-03-06T11:12:56;25.20;;;16.33;;
15061;SDS011;7630;50.306;8.566;2024-03-06T11:16:58;20.20;;;17.93;;
15061;SDS011;7630;50.306;8.566;2024-03-06T11:25:07;20.27;;;17.43;;
15061;SDS011;7630;50.306;8.566;2024-03-06T11:29:09;18.73;;;16.23;;
15061;SDS011;7630;50.306;8.566;2024-03-06T11:33:12;18.97;;;15.20;;
15061;SDS011;7630;50.306;8.566;2024-03-06T11:37:19;22.73;;;17.00;;
15061;SDS011;7630;50.306;8.566;2024-03-06T11:41:21;24.57;;;18.40;;
15061;SDS011;7630;50.306;8.566;2024-03-06T11:45:25;21.17;;;17.03;;
15061;SDS011;7630;50.306;8.566;2024-03-06T11:49:27;26.57;;;18.97;;
15061;SDS011;7630;50.306;8.566;2024-03-06T11:53:29;23.70;;;21.23;;
15061;SDS011;7630;50.306;8.566;2024-03-06T11:57:31;23.27;;;17.53;;
15061;SDS011;7630;50.306;8.566;2024-03-06T12:01:34;16.37;;;14.00;;
15061;SDS011;7630;50.306;8.566;2024-03-06T12:05:37;21.83;;;16.67;;
15061;SDS011;7630;50.306;8.566;2024-03-06T12:09:38;21.27;;;16.80;;
15061;SDS011;7630;50.306;8.566;2024-03-06T12:13:45;22.90;;;19.37;;
15061;SDS011;7630;50.306;8.566;2024-03-06T12:17:47;24.37;;;20.03;;
15061;SDS011;7630;50.306;8.566;2024-03-06T12:21:52;22.13;;;19.40;;
15061;SDS011;7630;50.306;8.566;2024-03-06T12:30:09;25.70;;;18.83;;
15061;SDS011;7630;50.306;8.566;2024-03-06T12:34:13;26.93;;;20.83;;
15061;SDS011;7630;50.306;8.566;2024-03-06T12:38:18;25.80;;;20.27;;
15061;SDS011;7630;50.306;8.566;2024-03-06T12:42:19;21.57;;;19.27;;
15061;SDS011;7630;50.306;8.566;2024-03-06T12:46:20;19.93;;;17.27;;
15061;SDS011;7630;50.306;8.566;2024-03-06T12:50:21;20.67;;;18.43;;
15061;SDS011;7630;50.306;8.566;2024-03-06T12:54:23;19.47;;;17.47;;
15061;SDS011;7630;50.306;8.566;2024-03-06T12:58:24;21.27;;;19.07;;
15061;SDS011;7630;50.306;8.566;2024-03-06T13:02:25;23.77;;;19.23;;
15061;SDS011;7630;50.306;8.566;2024-03-06T13:06:26;18.83;;;16.80;;
15061;SDS011;7630;50.306;8.566;2024-03-06T13:10:29;21.13;;;18.93;;
15061;SDS011;7630;50.306;8.566;2024-03-06T13:14:30;26.37;;;20.47;;
15061;SDS011;7630;50.306;8.566;2024-03-06T13:18:32;21.83;;;19.43;;
15061;SDS011;7630;50.306;8.566;2024-03-06T13:22:33;27.73;;;21.00;;
15061;SDS011;7630;50.306;8.566;2024-03-06T13:26:34;23.40;;;21.00;;
15061;SDS011;7630;50.306;8.566;2024-03-06T13:30:37;20.90;;;18.63;;
15061;SDS011;7630;50.306;8.566;2024-03-06T13:34:39;20.73;;;18.53;;
15061;SDS011;7630;50.306;8.566;2024-03-06T13:38:40;20.30;;;18.20;;
15061;SDS011;7630;50.306;8.566;2024-03-06T13:42:42;20.20;;;18.07;;
15061;SDS011;7630;50.306;8.566;2024-03-06T13:46:44;19.73;;;17.60;;
15061;SDS011;7630;50.306;8.566;2024-03-06T13:50:46;22.23;;;18.80;;
15061;SDS011;7630;50.306;8.566;2024-03-06T13:54:47;21.47;;;18.17;;
15061;SDS011;7630;50.306;8.566;2024-03-06T13:58:49;23.53;;;19.33;;
15061;SDS011;7630;50.306;8.566;2024-03-06T14:02:50;23.43;;;20.13;;
15061;SDS011;7630;50.306;8.566;2024-03-06T14:06:51;29.03;;;20.90;;
15061;SDS011;7630;50.306;8.566;2024-03-06T14:10:52;27.20;;;21.43;;
15061;SDS011;7630;50.306;8.566;2024-03-06T14:14:53;22.10;;;19.37;;
15061;SDS011;7630;50.306;8.566;2024-03-06T14:18:54;22.57;;;18.60;;
15061;SDS011;7630;50.306;8.566;2024-03-06T14:22:56;23.07;;;18.93;;
15061;SDS011;7630;50.306;8.566;2024-03-06T14:26:57;31.83;;;20.40;;
15061;SDS011;7630;50.306;8.566;2024-03-06T14:30:59;24.53;;;21.37;;
15061;SDS011;7630;50.306;8.566;2024-03-06T14:35:01;21.30;;;17.20;;
15061;SDS011;7630;50.306;8.566;2024-03-06T14:39:02;23.33;;;18.93;;
15061;SDS011;7630;50.306;8.566;2024-03-06T14:43:04;19.23;;;17.13;;
15061;SDS011;7630;50.306;8.566;2024-03-06T14:47:07;19.57;;;17.00;;
15061;SDS011;7630;50.306;8.566;2024-03-06T14:51:08;22.43;;;17.63;;
15061;SDS011;7630;50.306;8.566;2024-03-06T14:55:09;22.53;;;18.17;;
15061;SDS011;7630;50.306;8.566;2024-03-06T14:59:10;20.10;;;17.23;;
15061;SDS011;7630;50.306;8.566;2024-03-06T15:03:11;18.70;;;16.77;;
15061;SDS011;7630;50.306;8.566;2024-03-06T15:07:13;23.40;;;17.53;;
15061;SDS011;7630;50.306;8.566;2024-03-06T15:11:14;21.30;;;17.53;;
15061;SDS011;7630;50.306;8.566;2024-03-06T15:15:15;21.90;;;18.00;;
15061;SDS011;7630;50.306;8.566;2024-03-06T15:19:17;21.70;;;19.07;;
15061;SDS011;7630;50.306;8.566;2024-03-06T15:23:18;24.40;;;21.80;;
15061;SDS011;7630;50.306;8.566;2024-03-06T15:27:19;22.33;;;19.77;;
15061;SDS011;7630;50.306;8.566;2024-03-06T15:31:20;22.57;;;19.33;;
15061;SDS011;7630;50.306;8.566;2024-03-06T15:35:21;22.97;;;20.47;;
15061;SDS011;7630;50.306;8.566;2024-03-06T15:39:23;22.40;;;18.07;;
15061;SDS011;7630;50.306;8.566;2024-03-06T15:43:25;25.53;;;19.83;;
15061;SDS011;7630;50.306;8.566;2024-03-06T15:47:26;21.63;;;18.70;;
15061;SDS011;7630;50.306;8.566;2024-03-06T15:51:28;20.70;;;18.03;;
15061;SDS011;7630;50.306;8.566;2024-03-06T15:55:29;29.07;;;16.80;;
15061;SDS011;7630;50.306;8.566;2024-03-06T15:59:34;20.63;;;18.20;;
15061;SDS011;7630;50.306;8.566;2024-03-06T16:03:38;22.20;;;17.87;;
15061;SDS011;7630;50.306;8.566;2024-03-06T16:07:39;26.60;;;19.30;;
15061;SDS011;7630;50.306;8.566;2024-03-06T16:11:42;26.57;;;21.00;;
15061;SDS011;7630;50.306;8.566;2024-03-06T16:15:44;24.93;;;20.40;;
15061;SDS011;7630;50.306;8.566;2024-03-06T16:19:46;25.77;;;21.13;;
15061;SDS011;7630;50.306;8.566;2024-03-06T16:23:48;24.33;;;20.80;;
15061;SDS011;7630;50.306;8.566;2024-03-06T16:27:49;25.43;;;20.03;;
15061;SDS011;7630;50.306;8.566;2024-03-06T16:31:50;23.07;;;20.20;;
15061;SDS011;7630;50.306;8.566;2024-03-06T16:35:52;30.43;;;20.53;;
15061;SDS011;7630;50.306;8.566;2024-03-06T16:39:53;28.83;;;20.23;;
15061;SDS011;7630;50.306;8.566;2024-03-06T16:43:54;24.97;;;22.33;;
15061;SDS011;7630;50.306;8.566;2024-03-06T16:47:55;26.50;;;21.30;;
15061;SDS011;7630;50.306;8.566;2024-03-06T16:51:59;26.50;;;22.40;;
15061;SDS011;7630;50.306;8.566;2024-03-06T16:56:00;32.47;;;25.83;;
15061;SDS011;7630;50.306;8.566;2024-03-06T17:00:01;29.47;;;23.40;;
15061;SDS011;7630;50.306;8.566;2024-03-06T17:04:06;29.23;;;22.57;;
15061;SDS011;7630;50.306;8.566;2024-03-06T17:08:08;30.53;;;25.50;;
15061;SDS011;7630;50.306;8.566;2024-03-06T17:12:09;30.10;;;24.03;;
15061;SDS011;7630;50.306;8.566;2024-03-06T17:16:10;34.43;;;27.73;;
15061;SDS011;7630;50.306;8.566;2024-03-06T17:20:11;35.37;;;27.37;;
15061;SDS011;7630;50.306;8.566;2024-03-06T17:24:14;34.90;;;26.83;;
15061;SDS011;7630;50.306;8.566;2024-03-06T17:28:15;37.63;;;28.57;;
15061;SDS011;7630;50.306;8.566;2024-03-06T17:32:17;35.67;;;27.67;;
15061;SDS011;7630;50.306;8.566;2024-03-06T17:36:24;35.98;;;31.95;;
15061;SDS011;7630;50.306;8.566;2024-03-06T17:40:25;38.70;;;33.63;;
15061;SDS011;7630;50.306;8.566;2024-03-06T17:44:26;41.97;;;31.27;;
15061;SDS011;7630;50.306;8.566;2024-03-06T17:48:29;46.10;;;32.50;;
15061;SDS011;7630;50.306;8.566;2024-03-06T17:52:30;41.00;;;32.17;;
15061;SDS011;7630;50.306;8.566;2024-03-06T17:56:32;44.80;;;35.17;;
15061;SDS011;7630;50.306;8.566;2024-03-06T18:00:36;40.43;;;31.83;;
15061;SDS011;7630;50.306;8.566;2024-03-06T18:04:37;39.10;;;31.57;;
15061;SDS011;7630;50.306;8.566;2024-03-06T18:08:38;48.40;;;35.60;;
15061;SDS011;7630;50.306;8.566;2024-03-06T18:12:39;52.83;;;37.60;;
15061;SDS011;7630;50.306;8.566;2024-03-06T18:16:43;47.27;;;36.73;;
15061;SDS011;7630;50.306;8.566;2024-03-06T18:20:47;43.70;;;36.37;;
15061;SDS011;7630;50.306;8.566;2024-03-06T18:24:49;49.33;;;34.77;;
15061;SDS011;7630;50.306;8.566;2024-03-06T18:28:50;47.37;;;38.23;;
15061;SDS011;7630;50.306;8.566;2024-03-06T18:32:51;54.87;;;38.70;;
15061;SDS011;7630;50.306;8.566;2024-03-06T18:36:52;41.83;;;35.50;;
15061;SDS011;7630;50.306;8.566;2024-03-06T18:40:53;46.63;;;38.00;;
15061;SDS011;7630;50.306;8.566;2024-03-06T18:44:54;51.07;;;36.97;;
15061;SDS011;7630;50.306;8.566;2024-03-06T18:48:56;48.87;;;36.90;;
15061;SDS011;7630;50.306;8.566;2024-03-06T18:52:57;44.17;;;36.20;;
15061;SDS011;7630;50.306;8.566;2024-03-06T18:56:58;50.60;;;38.60;;
15061;SDS011;7630;50.306;8.566;2024-03-06T19:00:59;48.87;;;38.63;;
15061;SDS011;7630;50.306;8.566;2024-03-06T19:05:01;47.57;;;35.27;;
15061;SDS011;7630;50.306;8.566;2024-03-06T19:09:02;50.53;;;36.43;;
15061;SDS011;7630;50.306;8.566;2024-03-06T19:13:05;49.33;;;35.97;;
15061;SDS011;7630;50.306;8.566;2024-03-06T19:17:07;49.67;;;36.97;;
15061;SDS011;7630;50.306;8.566;2024-03-06T19:21:08;51.27;;;37.23;;
15061;SDS011;7630;50.306;8.566;2024-03-06T19:25:09;50.37;;;37.83;;
15061;SDS011;7630;50.306;8.566;2024-03-06T19:29:10;55.83;;;38.97;;
15061;SDS011;7630;50.306;8.566;2024-03-06T19:33:12;53.03;;;38.03;;
15061;SDS011;7630;50.306;8.566;2024-03-06T19:37:13;50.93;;;41.07;;
15061;SDS011;7630;50.306;8.566;2024-03-06T19:41:14;53.77;;;40.70;;
15061;SDS011;7630;50.306;8.566;2024-03-06T19:45:16;53.77;;;38.80;;
15061;SDS011;7630;50.306;8.566;2024-03-06T19:49:18;62.37;;;42.77;;
15061;SDS011;7630;50.306;8.566;2024-03-06T19:53:20;54.13;;;41.10;;
15061;SDS011;7630;50.306;8.566;2024-03-06T19:57:21;56.10;;;41.23;;
15061;SDS011;7630;50.306;8.566;2024-03-06T20:01:22;60.10;;;42.27;;
15061;SDS011;7630;50.306;8.566;2024-03-06T20:05:23;64.20;;;47.93;;
15061;SDS011;7630;50.306;8.566;2024-03-06T20:09:25;60.00;;;41.53;;
15061;SDS011;7630;50.306;8.566;2024-03-06T20:13:28;56.30;;;42.73;;
15061;SDS011;7630;50.306;8.566;2024-03-06T20:17:29;64.47;;;51.77;;
15061;SDS011;7630;50.306;8.566;2024-03-06T20:21:30;63.27;;;49.07;;
15061;SDS011;7630;50.306;8.566;2024-03-06T20:25:35;62.50;;;45.60;;
15061;SDS011;7630;50.306;8.566;2024-03-06T20:29:40;64.77;;;43.07;;
15061;SDS011;7630;50.306;8.566;2024-03-06T20:33:41;69.37;;;48.97;;
15061;SDS011;7630;50.306;8.566;2024-03-06T20:37:42;67.43;;;53.33;;
15061;SDS011;7630;50.306;8.566;2024-03-06T20:41:44;65.70;;;52.03;;
15061;SDS011;7630;50.306;8.566;2024-03-06T20:46:09;70.50;;;48.53;;
15061;SDS011;7630;50.306;8.566;2024-03-06T20:50:11;68.83;;;49.73;;
15061;SDS011;7630;50.306;8.566;2024-03-06T20:54:12;60.80;;;44.03;;
15061;SDS011;7630;50.306;8.566;2024-03-06T20:58:13;64.07;;;45.50;;
15061;SDS011;7630;50.306;8.566;2024-03-06T21:02:14;62.87;;;43.53;;
15061;SDS011;7630;50.306;8.566;2024-03-06T21:06:15;73.40;;;49.20;;
15061;SDS011;7630;50.306;8.566;2024-03-06T21:10:16;61.03;;;43.97;;
15061;SDS011;7630;50.306;8.566;2024-03-06T21:14:18;71.50;;;51.60;;
15061;SDS011;7630;50.306;8.566;2024-03-06T21:22:53;80.40;;;59.17;;
15061;SDS011;7630;50.306;8.566;2024-03-06T21:26:54;72.43;;;50.50;;
15061;SDS011;7630;50.306;8.566;2024-03-06T21:30:56;77.27;;;56.37;;
15061;SDS011;7630;50.306;8.566;2024-03-06T21:34:57;73.60;;;50.63;;
15061;SDS011;7630;50.306;8.566;2024-03-06T21:38:59;72.83;;;49.73;;
15061;SDS011;7630;50.306;8.566;2024-03-06T21:43:00;68.73;;;53.03;;
15061;SDS011;7630;50.306;8.566;2024-03-06T21:47:03;71.60;;;51.00;;
15061;SDS011;7630;50.306;8.566;2024-03-06T21:51:04;75.97;;;48.87;;
15061;SDS011;7630;50.306;8.566;2024-03-06T21:55:06;94.73;;;60.97;;
15061;SDS011;7630;50.306;8.566;2024-03-06T21:59:07;86.13;;;55.23;;
15061;SDS011;7630;50.306;8.566;2024-03-06T22:03:08;80.00;;;52.13;;
15061;SDS011;7630;50.306;8.566;2024-03-06T22:07:10;66.13;;;48.37;;
15061;SDS011;7630;50.306;8.566;2024-03-06T22:11:11;77.40;;;50.83;;
15061;SDS011;7630;50.306;8.566;2024-03-06T22:15:12;72.40;;;50.40;;
15061;SDS011;7630;50.306;8.566;2024-03-06T22:19:13;76.53;;;53.03;;
15061;SDS011;7630;50.306;8.566;2024-03-06T22:23:15;78.57;;;48.67;;
15061;SDS011;7630;50.306;8.566;2024-03-06T22:27:16;81.27;;;56.03;;
15061;SDS011;7630;50.306;8.566;2024-03-06T22:31:17;83.90;;;54.90;;
15061;SDS011;7630;50.306;8.566;2024-03-06T22:35:19;80.47;;;56.10;;
15061;SDS011;7630;50.306;8.566;2024-03-06T22:39:20;84.83;;;56.37;;
15061;SDS011;7630;50.306;8.566;2024-03-06T22:43:22;80.00;;;53.37;;
15061;SDS011;7630;50.306;8.566;2024-03-06T22:47:23;75.37;;;52.40;;
15061;SDS011;7630;50.306;8.566;2024-03-06T22:51:24;72.37;;;53.00;;
15061;SDS011;7630;50.306;8.566;2024-03-06T22:55:25;82.63;;;51.90;;
15061;SDS011;7630;50.306;8.566;2024-03-06T22:59:27;74.77;;;52.97;;
15061;SDS011;7630;50.306;8.566;2024-03-06T23:03:28;78.17;;;53.57;;
15061;SDS011;7630;50.306;8.566;2024-03-06T23:07:29;72.63;;;51.20;;
15061;SDS011;7630;50.306;8.566;2024-03-06T23:11:30;80.07;;;53.80;;
15061;SDS011;7630;50.306;8.566;2024-03-06T23:15:33;65.27;;;50.20;;
15061;SDS011;7630;50.306;8.566;2024-03-06T23:19:34;71.67;;;50.90;;
15061;SDS011;7630;50.306;8.566;2024-03-06T23:23:35;69.57;;;51.90;;
15061;SDS011;7630;50.306;8.566;2024-03-06T23:27:36;76.83;;;55.27;;
15061;SDS011;7630;50.306;8.566;2024-03-06T23:31:39;78.50;;;54.83;;
15061;SDS011;7630;50.306;8.566;2024-03-06T23:35:41;76.67;;;53.70;;
15061;SDS011;7630;50.306;8.566;2024-03-06T23:39:42;78.47;;;54.10;;
15061;SDS011;7630;50.306;8.566;2024-03-06T23:43:43;75.83;;;53.63;;
15061;SDS011;7630;50.306;8.566;2024-03-06T23:47:44;76.23;;;54.63;;
15061;SDS011;7630;50.306;8.566;2024-03-06T23:51:48;84.37;;;54.87;;
15061;SDS011;7630;50.306;8.566;2024-03-06T23:55:49;71.43;;;52.53;;
15061;SDS011;7630;50.306;8.566;2024-03-06T23:59:50;75.70;;;53.83;;
